To NAV CANADA Home Page Login to a new session Search on AWWS site Feedback and Comments Disclaimer Vers la page française équivalente Tips FAQ What's new on the site To the Forecasts and Observations / NOTAM section To "File a Flight Plan" website Publications and other links Update of the User's profile FIC Telephone Numbers My Weather Data Folder Route Weather Data Regional Weather Data Local Weather Data To the Forecasts and Observations / NOTAM section
Request Generated 04/16/2014 at 07:13:36 UTC . Weather information available at that time is displayed.

METAR/TAF

GRANDE PRAIRIE/AB    

METAR CYQU 160700Z 07008KT 25SM BKN052 M02/M05 A3011 RMK SC7 SLP230=
METAR CYQU 160600Z 02004KT 25SM OVC050 M01/M04 A3011 RMK SC8 SLP230=
METAR CYQU 160500Z 01003KT 25SM BKN038 OVC170 M01/M04 A3010 RMK
SC7AC1 SLP228=

TAF CYQU 160638Z 1607/1619 02005KT P6SM BKN050
FM161000 04008KT P6SM BKN040 TEMPO 1610/1617 BKN020
FM161700 04010KT P6SM SCT040
RMK NXT FCST BY 161300Z=
Your time UTC time
Weather data provided by Environment Canada and NAV CANADA